createdAt,value
2022-12-08T00:08:19.141Z,19.50
2022-12-08T00:18:18.538Z,17.20
2022-12-08T00:28:18.528Z,21.00
2022-12-08T00:38:12.332Z,8.60
2022-12-08T00:48:12.124Z,16.90
2022-12-08T00:58:11.611Z,18.80
2022-12-08T01:08:11.509Z,16.30
2022-12-08T01:18:10.877Z,20.00
2022-12-08T01:28:10.702Z,15.70
2022-12-08T01:38:10.334Z,14.80
2022-12-08T01:48:10.113Z,12.20
2022-12-08T01:58:09.444Z,16.00
2022-12-08T02:08:03.958Z,14.10
2022-12-08T02:18:03.377Z,16.20
2022-12-08T02:28:03.202Z,18.80
2022-12-08T02:38:02.667Z,19.90
2022-12-08T02:48:02.309Z,17.70
2022-12-08T02:58:01.950Z,20.80
2022-12-08T03:08:01.635Z,19.90
2022-12-08T03:18:01.192Z,19.40
2022-12-08T03:28:00.869Z,19.90
2022-12-08T03:37:55.140Z,13.30
2022-12-08T03:47:54.834Z,20.10
2022-12-08T03:57:54.427Z,13.70
2022-12-08T04:07:54.248Z,11.00
2022-12-08T04:17:53.830Z,13.80
2022-12-08T04:27:53.495Z,12.70
2022-12-08T04:37:52.960Z,14.20
2022-12-08T04:47:52.612Z,11.30
2022-12-08T04:57:52.364Z,13.00
2022-12-08T05:07:46.530Z,12.70
2022-12-08T05:17:45.977Z,11.30
2022-12-08T05:27:45.949Z,9.90
2022-12-08T05:37:45.231Z,8.70
2022-12-08T05:47:45.082Z,8.80
2022-12-08T05:57:44.544Z,8.20
2022-12-08T06:07:44.235Z,6.50
2022-12-08T06:17:43.804Z,7.00
2022-12-08T06:27:38.553Z,10.50
2022-12-08T06:37:37.994Z,13.40
2022-12-08T06:47:37.780Z,15.60
2022-12-08T06:57:37.408Z,13.60
2022-12-08T07:07:36.945Z,13.40
2022-12-08T07:17:36.677Z,14.10
2022-12-08T07:27:36.179Z,11.20
2022-12-08T07:37:35.824Z,10.10
2022-12-08T07:47:30.105Z,10.70
2022-12-08T07:57:29.730Z,8.20
2022-12-08T08:07:29.395Z,12.60
2022-12-08T08:17:29.109Z,10.20
2022-12-08T08:27:28.512Z,10.30
2022-12-08T08:37:28.178Z,10.80
2022-12-08T08:47:28.248Z,11.80
2022-12-08T08:57:27.461Z,8.00
2022-12-08T09:07:21.731Z,9.30
2022-12-08T09:17:21.346Z,9.10
2022-12-08T09:27:20.992Z,9.90
2022-12-08T09:37:20.459Z,10.10
2022-12-08T09:47:20.388Z,9.90
2022-12-08T09:57:20.076Z,11.80
2022-12-08T10:07:19.543Z,13.20
2022-12-08T10:17:19.026Z,11.90
2022-12-08T10:27:13.764Z,11.20
2022-12-08T10:37:13.073Z,12.40
2022-12-08T10:47:13.296Z,13.40
2022-12-08T10:57:12.502Z,13.40
2022-12-08T11:07:11.997Z,11.10
2022-12-08T11:17:11.595Z,10.00
2022-12-08T11:27:11.251Z,8.80
2022-12-08T11:37:10.854Z,10.70
2022-12-08T11:47:10.635Z,11.70
2022-12-08T11:57:04.921Z,10.80
2022-12-08T12:07:04.576Z,10.30
2022-12-08T12:17:04.068Z,12.00
2022-12-08T12:27:03.529Z,12.70
2022-12-08T12:37:03.163Z,11.50
2022-12-08T12:47:03.083Z,11.10
2022-12-08T12:57:02.442Z,10.20
2022-12-08T13:07:02.409Z,11.70
2022-12-08T13:17:01.906Z,10.90
2022-12-08T13:26:55.934Z,10.30
2022-12-08T13:36:55.516Z,13.10
2022-12-08T13:47:25.029Z,13.10
2022-12-08T13:57:08.817Z,10.50
2022-12-08T14:06:54.766Z,12.20
2022-12-08T14:16:54.062Z,11.60
2022-12-08T14:26:54.017Z,11.70
2022-12-08T14:36:53.463Z,12.80
2022-12-08T14:46:53.167Z,11.40
2022-12-08T14:56:52.596Z,12.60
2022-12-08T15:06:46.803Z,11.00
2022-12-08T15:16:46.439Z,11.70
2022-12-08T15:26:46.194Z,12.50
2022-12-08T15:36:45.698Z,11.80
2022-12-08T15:46:45.420Z,11.30
2022-12-08T15:57:02.919Z,11.50
2022-12-08T16:07:19.469Z,12.00
2022-12-08T16:16:44.240Z,13.90
2022-12-08T16:27:51.108Z,12.40
2022-12-08T16:36:43.661Z,11.80
2022-12-08T16:46:37.806Z,11.50
2022-12-08T16:56:37.266Z,12.30
2022-12-08T17:06:36.896Z,11.40
2022-12-08T17:16:36.621Z,10.60
2022-12-08T17:26:36.295Z,13.20
2022-12-08T17:36:35.953Z,10.20
2022-12-08T17:46:40.046Z,9.60
2022-12-08T17:56:35.264Z,12.30
2022-12-08T18:06:34.780Z,13.60
2022-12-08T18:16:29.202Z,11.10
2022-12-08T18:26:28.965Z,9.80
2022-12-08T18:36:28.439Z,10.10
2022-12-08T18:46:28.526Z,12.60
2022-12-08T18:56:27.727Z,12.90
2022-12-08T19:06:27.463Z,11.50
2022-12-08T19:16:27.168Z,12.90
2022-12-08T19:26:26.553Z,11.50
2022-12-08T19:36:26.166Z,15.40
2022-12-08T19:46:20.734Z,13.10
2022-12-08T19:56:20.101Z,13.90
2022-12-08T20:06:19.851Z,14.20
2022-12-08T20:16:19.408Z,14.40
2022-12-08T20:26:18.936Z,15.40
2022-12-08T20:36:18.742Z,14.30
2022-12-08T20:46:18.366Z,16.20
2022-12-08T20:56:17.937Z,15.90
2022-12-08T21:06:17.532Z,15.20
2022-12-08T21:16:11.749Z,17.50
2022-12-08T21:26:11.417Z,19.60
2022-12-08T21:36:10.838Z,15.90
2022-12-08T21:46:10.590Z,16.40
2022-12-08T21:56:10.277Z,15.90
2022-12-08T22:06:09.800Z,16.30
2022-12-08T22:16:09.516Z,16.80
2022-12-08T22:26:09.129Z,15.70
2022-12-08T22:36:08.336Z,16.90
2022-12-08T22:46:05.290Z,17.00
2022-12-08T22:56:02.500Z,17.10
2022-12-08T23:06:02.481Z,20.60
2022-12-08T23:16:01.995Z,19.30
2022-12-08T23:26:01.513Z,17.10
2022-12-08T23:36:00.969Z,17.00
2022-12-08T23:46:01.088Z,18.00
2022-12-08T23:56:00.328Z,16.70
